Time;durP1;ratioP1;P1;durP2;ratioP2;P2;SDS_P1;SDS_P2;PMS_P1;PMS_P2;Temp;Humidity;BMP_temperature;BMP_pressure;BME280_temperature;BME280_humidity;BME280_pressure;Samples;Min_cycle;Max_cycle;Signal;HPM_P1;HPM_P2
2024/03/16 00:00:13;;;;;;;22.80;2.92;;;14.30;99.90;;;;;;7397292;19;20016;-75
2024/03/16 00:02:42;;;;;;;13.07;2.72;;;14.40;99.90;;;;;;7374631;19;20365;-76
2024/03/16 00:05:11;;;;;;;20.67;2.72;;;14.10;99.90;;;;;;7376275;19;20090;-75
2024/03/16 00:07:42;;;;;;;16.52;2.95;;;14.10;99.90;;;;;;7376031;19;20078;-76
2024/03/16 00:10:11;;;;;;;14.95;2.28;;;14.20;99.90;;;;;;7376276;19;20007;-76
2024/03/16 00:12:39;;;;;;;17.17;2.45;;;14.10;99.90;;;;;;7376294;19;20010;-76
2024/03/16 00:15:09;;;;;;;14.98;1.95;;;14.20;99.90;;;;;;7397169;19;20002;-75
2024/03/16 00:17:38;;;;;;;16.67;1.77;;;14.20;99.90;;;;;;7376642;19;20276;-75
2024/03/16 00:20:10;;;;;;;8.55;1.27;;;14.10;99.90;;;;;;7375127;19;20010;-75
2024/03/16 00:22:41;;;;;;;8.93;1.38;;;14.10;99.90;;;;;;7375981;19;20027;-76
2024/03/16 00:25:10;;;;;;;1.98;0.93;;;14.00;99.90;;;;;;7376059;19;20015;-76
2024/03/16 00:27:39;;;;;;;12.18;1.45;;;14.10;99.90;;;;;;7376457;19;20011;-76
2024/03/16 00:30:10;;;;;;;3.83;0.98;;;14.20;99.90;;;;;;7396796;19;20035;-76
2024/03/16 00:32:39;;;;;;;5.20;1.20;;;14.00;99.90;;;;;;7375010;19;20027;-75
2024/03/16 00:35:08;;;;;;;5.53;0.95;;;14.20;99.90;;;;;;7375787;19;20003;-76
2024/03/16 00:37:37;;;;;;;6.47;1.58;;;14.10;99.90;;;;;;7375270;19;20006;-75
2024/03/16 00:40:10;;;;;;;5.97;0.82;;;13.80;99.90;;;;;;7375248;19;20087;-75
2024/03/16 00:42:38;;;;;;;3.92;0.80;;;14.00;99.90;;;;;;7375368;19;20007;-76
2024/03/16 00:45:08;;;;;;;7.80;1.05;;;13.80;99.90;;;;;;7396380;19;20348;-75
2024/03/16 00:47:37;;;;;;;6.45;1.20;;;13.90;99.90;;;;;;7374522;19;20020;-75
2024/03/16 00:50:06;;;;;;;2.70;0.60;;;13.90;99.90;;;;;;7375530;19;20007;-76
2024/03/16 00:52:35;;;;;;;8.68;0.93;;;13.80;99.90;;;;;;7375490;19;20007;-75
2024/03/16 00:55:05;;;;;;;6.72;0.95;;;13.90;99.90;;;;;;7375339;19;20019;-75
2024/03/16 00:57:36;;;;;;;3.05;0.82;;;14.00;99.90;;;;;;7393881;19;20013;-75
2024/03/16 01:00:08;;;;;;;6.25;1.98;;;14.00;99.90;;;;;;7396207;19;20035;-75
2024/03/16 01:02:37;;;;;;;8.32;1.65;;;14.10;99.90;;;;;;7374063;19;20094;-76
2024/03/16 01:05:06;;;;;;;8.50;1.13;;;14.20;99.90;;;;;;7374148;19;20014;-76
2024/03/16 01:07:35;;;;;;;4.38;0.93;;;14.30;99.90;;;;;;7374190;19;20724;-76
2024/03/16 01:10:03;;;;;;;6.40;1.00;;;14.30;99.90;;;;;;7375119;19;20023;-75
2024/03/16 01:12:33;;;;;;;2.65;1.10;;;14.40;99.90;;;;;;7395728;19;20066;-75
2024/03/16 01:15:05;;;;;;;3.00;1.02;;;14.50;99.90;;;;;;7374037;19;20610;-76
2024/03/16 01:17:34;;;;;;;3.95;0.68;;;14.70;99.90;;;;;;7372749;19;20010;-75
2024/03/16 01:20:05;;;;;;;16.60;1.50;;;14.60;99.90;;;;;;7374485;19;20037;-76
2024/03/16 01:22:34;;;;;;;11.82;1.17;;;14.70;99.90;;;;;;7374059;19;20019;-75
2024/03/16 01:25:02;;;;;;;10.68;1.45;;;14.90;99.90;;;;;;7374294;19;20306;-75
2024/03/16 01:27:32;;;;;;;8.23;1.42;;;15.00;99.90;;;;;;7397729;19;20003;-75
2024/03/16 01:30:04;;;;;;;6.82;1.48;;;15.00;99.90;;;;;;7374159;19;20014;-76
2024/03/16 01:32:35;;;;;;;;;;;15.10;99.90;;;;;;7375407;19;20003;-75
2024/03/16 01:35:03;;;;;;;8.10;1.20;;;15.20;99.90;;;;;;7374438;19;19924;-76
2024/03/16 01:37:32;;;;;;;6.13;0.95;;;15.20;99.90;;;;;;7373740;19;20406;-76
2024/03/16 01:40:01;;;;;;;11.43;1.48;;;15.30;99.90;;;;;;7374366;19;20095;-77
2024/03/16 01:42:30;;;;;;;10.43;1.70;;;15.40;99.90;;;;;;7395655;19;20007;-75
2024/03/16 01:45:10;;;;;;;13.52;1.83;;;15.20;99.90;;;;;;7373515;19;20098;-76
2024/03/16 01:47:40;;;;;;;3.70;0.82;;;15.10;99.90;;;;;;7373895;19;20014;-75
2024/03/16 01:50:10;;;;;;;3.05;0.60;;;15.20;99.90;;;;;;7374301;19;20066;-75
2024/03/16 01:52:39;;;;;;;7.70;1.00;;;15.20;99.90;;;;;;7374233;19;20406;-76
2024/03/16 01:55:09;;;;;;;5.97;0.95;;;15.20;99.90;;;;;;7373570;19;20160;-75
2024/03/16 01:57:38;;;;;;;4.50;1.00;;;15.20;99.90;;;;;;7394589;19;20252;-75
2024/03/16 02:00:11;;;;;;;3.38;0.70;;;15.30;99.90;;;;;;7372445;19;20011;-75
2024/03/16 02:02:41;;;;;;;4.10;0.80;;;15.10;99.90;;;;;;7372717;19;20385;-76
2024/03/16 02:05:10;;;;;;;2.58;0.98;;;15.10;99.90;;;;;;7373701;19;20007;-74
2024/03/16 02:07:40;;;;;;;1.50;0.52;;;15.10;99.90;;;;;;7372964;19;20121;-75
2024/03/16 02:10:11;;;;;;;3.00;0.70;;;14.80;99.90;;;;;;7373759;19;20231;-75
2024/03/16 02:12:41;;;;;;;5.82;0.65;;;14.80;99.90;;;;;;7395225;19;20018;-76
2024/03/16 02:15:13;;;;;;;1.60;0.40;;;14.70;99.90;;;;;;7372557;19;20078;-75
2024/03/16 02:17:45;;;;;;;5.18;0.82;;;14.80;99.90;;;;;;7371145;19;20010;-75
2024/03/16 02:20:16;;;;;;;1.95;0.68;;;14.70;99.90;;;;;;7372575;19;20027;-76
2024/03/16 02:22:49;;;;;;;3.42;0.50;;;14.50;99.90;;;;;;7373372;19;20007;-75
2024/03/16 02:25:18;;;;;;;0.95;0.45;;;14.40;99.90;;;;;;7378885;19;20039;-77
2024/03/16 02:27:47;;;;;;;4.45;0.60;;;14.40;99.90;;;;;;7385749;19;20007;-76
2024/03/16 02:30:16;;;;;;;4.03;0.73;;;14.20;99.90;;;;;;7401635;19;20026;-77
2024/03/16 02:32:44;;;;;;;0.85;0.47;;;14.40;99.90;;;;;;7379602;19;20078;-76
2024/03/16 02:35:15;;;;;;;1.65;0.47;;;14.50;99.90;;;;;;7379672;19;20003;-75
2024/03/16 02:37:47;;;;;;;0.93;0.38;;;14.30;99.90;;;;;;7380195;19;20015;-76
2024/03/16 02:40:17;;;;;;;0.47;0.40;;;14.50;99.90;;;;;;7379820;19;20019;-75
2024/03/16 02:42:46;;;;;;;1.15;0.38;;;14.30;99.90;;;;;;7401355;19;20023;-76
2024/03/16 02:45:15;;;;;;;2.72;0.47;;;14.30;99.90;;;;;;7378990;19;20002;-76
2024/03/16 02:47:45;;;;;;;1.35;0.55;;;14.40;99.90;;;;;;7378820;19;20268;-75
2024/03/16 02:50:13;;;;;;;2.42;0.40;;;14.50;99.90;;;;;;7379102;19;20018;-76
2024/03/16 02:52:42;;;;;;;1.67;0.30;;;14.70;99.90;;;;;;7379138;19;20144;-76
2024/03/16 02:55:13;;;;;;;0.98;0.40;;;14.60;99.90;;;;;;7379134;19;20014;-76
2024/03/16 02:57:44;;;;;;;;;;;14.70;99.90;;;;;;7400722;19;20315;-76
2024/03/16 03:00:16;;;;;;;0.60;0.33;;;14.20;99.90;;;;;;7378186;19;19915;-75
2024/03/16 03:02:46;;;;;;;0.57;0.20;;;14.30;99.90;;;;;;7377643;19;20014;-75
2024/03/16 03:05:19;;;;;;;1.00;0.35;;;14.50;99.90;;;;;;7379739;19;20010;-76
2024/03/16 03:07:49;;;;;;;1.98;0.40;;;14.50;99.90;;;;;;7379230;19;20035;-76
2024/03/16 03:10:21;;;;;;;7.15;0.57;;;14.30;99.90;;;;;;7378447;19;20740;-76
2024/03/16 03:12:50;;;;;;;1.17;0.38;;;14.50;99.90;;;;;;7383110;19;20010;-75
2024/03/16 03:15:19;;;;;;;0.43;0.38;;;14.50;99.90;;;;;;7399637;19;20379;-76
2024/03/16 03:17:48;;;;;;;2.67;0.47;;;14.50;99.90;;;;;;7375934;19;20010;-76
2024/03/16 03:20:20;;;;;;;1.15;0.35;;;14.60;99.90;;;;;;7378458;19;20002;-76
2024/03/16 03:22:50;;;;;;;1.45;0.47;;;14.70;99.90;;;;;;7376796;19;20030;-76
2024/03/16 03:25:21;;;;;;;2.10;0.40;;;14.60;99.90;;;;;;7379399;19;20010;-76
2024/03/16 03:27:50;;;;;;;5.32;0.60;;;14.60;99.90;;;;;;7399877;19;20011;-76
2024/03/16 03:30:19;;;;;;;1.48;0.40;;;14.60;99.90;;;;;;7377462;19;20003;-75
2024/03/16 03:32:47;;;;;;;5.80;0.45;;;14.70;99.90;;;;;;7377257;19;20011;-75
2024/03/16 03:35:16;;;;;;;0.75;0.22;;;14.40;99.90;;;;;;7377755;19;20054;-75
2024/03/16 03:37:45;;;;;;;5.13;0.60;;;14.50;99.90;;;;;;7378052;19;20023;-77
2024/03/16 03:40:14;;;;;;;0.80;0.47;;;14.40;99.90;;;;;;7377082;19;20071;-75
2024/03/16 03:42:47;;;;;;;1.20;0.70;;;14.50;99.90;;;;;;7398174;19;20018;-76
2024/03/16 03:45:24;;;;;;;2.45;0.43;;;14.50;99.90;;;;;;7377510;19;20011;-75
2024/03/16 03:48:04;;;;;;;1.10;0.60;;;14.60;99.90;;;;;;7376180;19;20006;-76
2024/03/16 03:50:33;;;;;;;1.55;0.50;;;14.60;99.90;;;;;;7377007;19;20006;-76
2024/03/16 03:53:02;;;;;;;3.65;0.57;;;14.70;99.90;;;;;;7376908;19;20075;-76
2024/03/16 03:55:32;;;;;;;0.40;0.40;;;14.70;99.90;;;;;;7377158;19;20010;-76
2024/03/16 03:58:03;;;;;;;2.42;0.50;;;14.70;99.90;;;;;;7376229;19;20407;-76
2024/03/16 04:00:32;;;;;;;2.08;0.43;;;14.90;99.90;;;;;;7398002;19;20220;-76
2024/03/16 04:03:01;;;;;;;0.82;0.40;;;14.60;99.90;;;;;;7379552;19;20041;-75
2024/03/16 04:05:30;;;;;;;2.70;0.45;;;14.50;99.90;;;;;;7376728;19;20002;-76
2024/03/16 04:07:58;;;;;;;1.75;0.45;;;14.30;99.90;;;;;;7376245;19;20244;-75
2024/03/16 04:10:27;;;;;;;1.33;0.40;;;14.50;99.90;;;;;;7376545;19;20019;-76
2024/03/16 04:12:56;;;;;;;0.75;0.32;;;14.50;99.90;;;;;;7397745;19;20007;-76
2024/03/16 04:15:28;;;;;;;1.33;0.50;;;14.40;99.90;;;;;;7376214;19;20090;-76
2024/03/16 04:17:56;;;;;;;0.20;0.20;;;14.50;99.90;;;;;;7373991;19;20066;-76
2024/03/16 04:20:25;;;;;;;2.42;0.43;;;14.50;99.90;;;;;;7375862;19;20254;-76
2024/03/16 04:22:54;;;;;;;0.85;0.38;;;14.60;99.90;;;;;;7375122;19;20115;-75
2024/03/16 04:25:23;;;;;;;3.85;0.47;;;14.50;99.90;;;;;;7376211;19;20003;-75
2024/03/16 04:27:51;;;;;;;0.80;0.40;;;14.50;99.90;;;;;;7397587;19;20610;-75
2024/03/16 04:30:20;;;;;;;0.80;0.45;;;14.50;99.90;;;;;;7381191;19;20011;-75
2024/03/16 04:32:51;;;;;;;0.63;0.40;;;14.60;99.90;;;;;;7381020;19;20007;-75
2024/03/16 04:35:20;;;;;;;2.55;0.40;;;14.60;99.90;;;;;;7375178;19;20010;-74
2024/03/16 04:37:49;;;;;;;4.47;0.30;;;14.70;99.90;;;;;;7380344;19;20061;-75
2024/03/16 04:40:19;;;;;;;1.25;0.40;;;14.70;99.90;;;;;;7376164;19;20007;-75
2024/03/16 04:42:47;;;;;;;0.22;0.22;;;14.70;99.90;;;;;;7395582;19;20280;-75
2024/03/16 04:45:16;;;;;;;8.07;0.57;;;14.50;99.90;;;;;;7374785;19;19999;-76
2024/03/16 04:47:45;;;;;;;0.40;0.30;;;14.40;99.90;;;;;;7373972;19;20007;-76
2024/03/16 04:50:16;;;;;;;0.47;0.20;;;14.30;99.90;;;;;;7374976;19;20316;-76
2024/03/16 04:52:45;;;;;;;2.80;0.60;;;14.00;99.90;;;;;;7375701;19;20062;-75
2024/03/16 04:55:14;;;;;;;0.50;0.40;;;14.00;99.90;;;;;;7375341;19;20009;-76
2024/03/16 04:57:42;;;;;;;1.90;0.40;;;13.90;99.90;;;;;;7396732;19;20009;-76
2024/03/16 05:00:13;;;;;;;2.28;0.30;;;14.00;99.90;;;;;;7374241;19;20010;-75
2024/03/16 05:02:42;;;;;;;0.65;0.40;;;14.10;99.90;;;;;;7372452;19;20034;-75
2024/03/16 05:05:11;;;;;;;1.02;0.38;;;14.10;99.90;;;;;;7375267;19;20013;-76
2024/03/16 05:07:42;;;;;;;1.58;0.45;;;14.10;99.90;;;;;;7374668;19;20007;-75
2024/03/16 05:10:11;;;;;;;2.00;0.35;;;14.20;99.90;;;;;;7374588;19;20006;-75
2024/03/16 05:12:40;;;;;;;0.60;0.40;;;14.10;99.90;;;;;;7395889;19;20007;-76
2024/03/16 05:15:09;;;;;;;0.73;0.45;;;14.20;99.90;;;;;;7373772;19;20025;-75
2024/03/16 05:17:39;;;;;;;1.50;0.55;;;14.30;99.90;;;;;;7372673;19;20006;-75
2024/03/16 05:20:09;;;;;;;3.55;0.38;;;14.40;99.90;;;;;;7374549;19;20263;-75
2024/03/16 05:22:38;;;;;;;1.85;0.43;;;14.20;99.90;;;;;;7373564;19;19999;-75
2024/03/16 05:25:10;;;;;;;1.90;0.50;;;14.10;99.90;;;;;;7381843;19;20010;-75
2024/03/16 05:27:38;;;;;;;1.17;0.55;;;14.10;99.90;;;;;;7395661;19;20417;-75
2024/03/16 05:30:08;;;;;;;3.00;0.60;;;14.20;99.90;;;;;;7373941;19;20019;-76
2024/03/16 05:32:37;;;;;;;1.95;0.63;;;14.30;99.90;;;;;;7374249;19;20030;-76
2024/03/16 05:35:08;;;;;;;1.95;0.55;;;14.30;99.90;;;;;;7374358;19;20007;-75
2024/03/16 05:37:37;;;;;;;0.80;0.55;;;14.20;99.90;;;;;;7371832;19;20023;-74
2024/03/16 05:40:10;;;;;;;0.98;0.40;;;14.20;99.90;;;;;;7393437;19;20007;-74
2024/03/16 05:42:39;;;;;;;1.10;0.55;;;14.00;99.90;;;;;;7393316;19;20007;-74
2024/03/16 05:45:09;;;;;;;4.28;0.60;;;14.10;99.90;;;;;;7373186;19;20010;-75
2024/03/16 05:47:38;;;;;;;4.05;0.68;;;14.00;99.90;;;;;;7373916;19;20003;-76
2024/03/16 05:50:08;;;;;;;1.25;0.50;;;14.00;99.90;;;;;;7373694;19;20003;-76
2024/03/16 05:52:37;;;;;;;1.55;0.40;;;14.10;99.90;;;;;;7373103;19;19999;-76
2024/03/16 05:55:09;;;;;;;0.43;0.43;;;13.90;99.90;;;;;;7397781;19;20038;-76
2024/03/16 05:57:38;;;;;;;0.73;0.25;;;14.00;99.90;;;;;;7372599;19;20071;-75
2024/03/16 06:00:13;;;;;;;0.77;0.50;;;14.10;99.90;;;;;;7377161;19;20003;-76
2024/03/16 06:02:43;;;;;;;5.35;0.47;;;14.10;99.90;;;;;;7378257;19;20013;-76
2024/03/16 06:05:13;;;;;;;2.65;0.43;;;14.00;99.90;;;;;;7380370;19;20003;-76
2024/03/16 06:07:42;;;;;;;0.45;0.30;;;14.10;99.90;;;;;;7380192;19;20066;-76
2024/03/16 06:10:14;;;;;;;1.17;0.40;;;14.20;99.90;;;;;;7380166;19;20007;-75
2024/03/16 06:12:43;;;;;;;2.40;0.60;;;14.20;99.90;;;;;;7401609;19;20021;-75
2024/03/16 06:15:11;;;;;;;3.65;0.70;;;14.20;99.90;;;;;;7379487;19;20014;-75
2024/03/16 06:17:40;;;;;;;4.05;0.60;;;14.20;99.90;;;;;;7379681;19;20055;-76
2024/03/16 06:20:13;;;;;;;2.97;0.88;;;14.30;99.90;;;;;;7378736;19;20279;-75
2024/03/16 06:22:42;;;;;;;2.22;0.68;;;14.30;99.90;;;;;;7379289;19;20043;-76
2024/03/16 06:25:14;;;;;;;0.85;0.60;;;14.20;99.90;;;;;;7401589;19;20238;-76
2024/03/16 06:27:49;;;;;;;1.02;0.50;;;14.30;99.90;;;;;;7379603;19;20009;-76
2024/03/16 06:30:19;;;;;;;3.47;0.60;;;14.40;99.90;;;;;;7379004;19;20003;-75
2024/03/16 06:33:05;;;;;;;8.73;0.90;;;14.40;99.90;;;;;;7379429;19;20007;-76
2024/03/16 06:35:36;;;;;;;2.28;0.40;;;14.30;99.90;;;;;;7379581;19;20007;-75
2024/03/16 06:38:05;;;;;;;1.27;0.60;;;14.20;99.90;;;;;;7380288;19;20022;-75
2024/03/16 06:40:36;;;;;;;2.67;0.60;;;14.30;99.90;;;;;;7378856;19;20657;-76
2024/03/16 06:43:05;;;;;;;2.22;0.70;;;14.30;99.90;;;;;;7399072;19;20011;-75
2024/03/16 06:45:34;;;;;;;2.13;0.45;;;14.20;99.90;;;;;;7378691;19;20555;-75
2024/03/16 06:48:03;;;;;;;4.93;0.82;;;14.20;99.90;;;;;;7378598;19;20093;-75
2024/03/16 06:50:32;;;;;;;4.97;0.50;;;14.30;99.90;;;;;;7380131;19;20002;-75
2024/03/16 06:53:00;;;;;;;4.78;0.60;;;14.40;99.90;;;;;;7378605;19;20269;-75
2024/03/16 06:55:29;;;;;;;2.60;0.70;;;14.50;99.90;;;;;;7378821;19;20242;-76
2024/03/16 06:58:00;;;;;;;1.65;0.60;;;14.40;99.90;;;;;;7400152;19;20430;-75
2024/03/16 07:00:30;;;;;;;1.17;0.70;;;14.40;99.90;;;;;;7378317;19;20287;-76
2024/03/16 07:02:58;;;;;;;2.40;0.68;;;14.30;99.90;;;;;;7377027;19;19999;-76
2024/03/16 07:05:27;;;;;;;4.65;0.80;;;14.30;99.90;;;;;;7379037;19;20010;-75
2024/03/16 07:07:57;;;;;;;3.20;1.58;;;14.40;99.90;;;;;;7378045;19;20070;-75
2024/03/16 07:10:26;;;;;;;2.90;0.70;;;14.50;99.90;;;;;;7378551;19;20560;-76
2024/03/16 07:12:54;;;;;;;3.83;1.10;;;14.40;99.90;;;;;;7397269;19;20301;-75
2024/03/16 07:15:26;;;;;;;4.53;0.90;;;14.40;99.90;;;;;;7377727;19;20063;-75
2024/03/16 07:17:54;;;;;;;14.80;3.60;;;14.40;99.90;;;;;;7377471;19;20070;-76
2024/03/16 07:20:23;;;;;;;1.35;0.88;;;14.40;99.90;;;;;;7378548;19;20010;-76
2024/03/16 07:22:53;;;;;;;2.35;0.80;;;14.40;99.90;;;;;;7377755;19;20126;-75
2024/03/16 07:25:22;;;;;;;1.05;0.75;;;14.30;99.90;;;;;;7379707;19;20227;-76
2024/03/16 07:27:51;;;;;;;2.47;0.85;;;14.30;99.90;;;;;;7399530;19;20010;-75
2024/03/16 07:30:20;;;;;;;3.33;0.73;;;14.10;99.90;;;;;;7376929;19;20002;-75
2024/03/16 07:32:51;;;;;;;1.17;0.82;;;14.00;99.90;;;;;;7377750;19;20015;-76
2024/03/16 07:35:20;;;;;;;5.32;0.65;;;14.00;99.90;;;;;;7377859;19;20302;-76
2024/03/16 07:37:48;;;;;;;2.95;0.95;;;14.20;99.90;;;;;;7377747;19;20073;-76
2024/03/16 07:40:17;;;;;;;1.75;0.80;;;14.10;99.90;;;;;;7399752;19;20015;-76
2024/03/16 07:42:46;;;;;;;2.22;0.68;;;14.30;99.90;;;;;;7376599;19;20025;-76
2024/03/16 07:45:15;;;;;;;5.25;0.82;;;14.30;99.90;;;;;;7377009;19;20058;-76
2024/03/16 07:47:44;;;;;;;7.65;0.98;;;14.20;99.90;;;;;;7378171;19;20002;-75
2024/03/16 07:50:15;;;;;;;0.95;0.60;;;14.30;99.90;;;;;;7382053;19;20697;-75
2024/03/16 07:52:44;;;;;;;;;;;14.50;99.90;;;;;;7378364;19;20036;-75
2024/03/16 07:55:12;;;;;;;5.78;0.70;;;14.60;99.90;;;;;;7398354;19;19971;-76
2024/03/16 07:57:42;;;;;;;6.50;1.23;;;14.60;99.90;;;;;;7376213;19;20026;-76
2024/03/16 08:00:12;;;;;;;1.10;0.70;;;14.70;99.90;;;;;;7376634;19;20394;-75
2024/03/16 08:02:41;;;;;;;6.72;0.88;;;14.90;99.90;;;;;;7376604;19;20297;-75
2024/03/16 08:05:11;;;;;;;4.63;1.35;;;14.60;99.90;;;;;;7375361;19;20277;-75
2024/03/16 08:07:44;;;;;;;2.33;0.70;;;14.50;99.90;;;;;;7377030;19;20021;-75
2024/03/16 08:10:13;;;;;;;3.53;1.00;;;14.40;99.90;;;;;;7398141;19;20014;-76
2024/03/16 08:12:42;;;;;;;4.88;0.95;;;14.50;99.90;;;;;;7375925;19;20078;-76
2024/03/16 08:15:11;;;;;;;8.52;0.85;;;14.40;99.90;;;;;;7376149;19;20260;-76
2024/03/16 08:17:39;;;;;;;7.93;1.17;;;14.50;99.90;;;;;;7376038;19;20050;-76
2024/03/16 08:20:12;;;;;;;2.00;0.70;;;14.50;99.90;;;;;;7376513;19;20016;-76
2024/03/16 08:22:43;;;;;;;7.07;1.10;;;14.40;99.90;;;;;;7374238;19;20372;-76
2024/03/16 08:25:12;;;;;;;4.72;0.88;;;14.40;99.90;;;;;;7397853;19;20016;-76
2024/03/16 08:27:41;;;;;;;1.50;0.80;;;14.50;99.90;;;;;;7375521;19;20013;-75
2024/03/16 08:30:11;;;;;;;2.03;0.80;;;14.60;99.90;;;;;;7375892;19;20015;-76
2024/03/16 08:32:40;;;;;;;7.60;1.10;;;14.70;99.90;;;;;;7375983;19;20010;-76
2024/03/16 08:35:09;;;;;;;2.63;0.73;;;14.80;99.90;;;;;;7375949;19;20021;-76
2024/03/16 08:37:38;;;;;;;8.02;0.95;;;15.00;99.90;;;;;;7376310;19;20007;-76
2024/03/16 08:40:11;;;;;;;0.80;0.80;;;15.00;99.90;;;;;;7397092;19;20074;-76
2024/03/16 08:42:41;;;;;;;3.58;1.02;;;15.10;99.90;;;;;;7374854;19;20437;-76
2024/03/16 08:45:10;;;;;;;5.53;0.98;;;15.10;99.90;;;;;;7375592;19;20025;-77
2024/03/16 08:47:41;;;;;;;5.45;0.98;;;15.00;99.90;;;;;;7375725;19;20821;-76
2024/03/16 08:50:11;;;;;;;3.28;1.38;;;14.70;99.90;;;;;;7376143;19;20024;-76
2024/03/16 08:52:42;;;;;;;2.38;0.93;;;14.80;99.90;;;;;;7375533;19;20361;-79
2024/03/16 08:55:13;;;;;;;;;;;14.40;99.90;;;;;;7397609;19;20035;-76
2024/03/16 08:57:43;;;;;;;9.70;1.30;;;14.30;99.90;;;;;;7374711;19;20227;-75
2024/03/16 09:00:15;;;;;;;6.82;1.52;;;14.40;99.90;;;;;;7375032;19;20241;-76
2024/03/16 09:02:44;;;;;;;3.88;1.33;;;14.20;99.90;;;;;;7375060;19;20002;-75
2024/03/16 09:05:13;;;;;;;6.82;1.10;;;14.00;99.90;;;;;;7374939;19;20294;-76
2024/03/16 09:07:42;;;;;;;7.03;1.30;;;13.80;99.90;;;;;;7374581;19;20003;-75
2024/03/16 09:10:14;;;;;;;2.97;1.33;;;14.00;99.90;;;;;;7395728;19;20292;-75
2024/03/16 09:12:43;;;;;;;7.38;1.15;;;14.10;99.90;;;;;;7374196;19;20023;-75
2024/03/16 09:15:11;;;;;;;5.93;1.55;;;14.30;99.90;;;;;;7374188;19;20007;-75
2024/03/16 09:17:40;;;;;;;5.90;1.33;;;14.40;99.90;;;;;;7374594;19;20019;-75
2024/03/16 09:20:10;;;;;;;6.68;1.50;;;14.50;99.90;;;;;;7374711;19;20023;-76
2024/03/16 09:22:38;;;;;;;6.43;1.42;;;14.50;99.90;;;;;;7374253;19;20023;-75
2024/03/16 09:25:08;;;;;;;8.15;1.52;;;14.50;99.90;;;;;;7396233;19;20019;-76
2024/03/16 09:27:40;;;;;;;8.88;1.48;;;14.70;99.90;;;;;;7373687;19;20926;-76
2024/03/16 09:30:11;;;;;;;4.70;1.38;;;14.70;99.90;;;;;;7374614;19;20090;-78
2024/03/16 09:32:39;;;;;;;5.45;1.20;;;14.80;99.90;;;;;;7374991;19;20091;-77
2024/03/16 09:35:10;;;;;;;6.22;1.60;;;14.90;99.90;;;;;;7382180;19;20006;-76
2024/03/16 09:37:39;;;;;;;3.10;1.30;;;14.70;99.90;;;;;;7381243;19;20014;-77
2024/03/16 09:40:13;;;;;;;3.10;1.20;;;14.60;99.90;;;;;;7405954;19;20251;-75
2024/03/16 09:42:44;;;;;;;10.23;1.65;;;14.80;99.90;;;;;;7381461;19;20369;-76
2024/03/16 09:45:20;;;;;;;5.32;1.42;;;14.80;99.90;;;;;;7381745;19;20667;-77
2024/03/16 09:47:49;;;;;;;5.40;1.63;;;15.00;99.90;;;;;;7382070;19;20074;-76
2024/03/16 09:50:19;;;;;;;6.28;1.95;;;15.00;99.90;;;;;;7381438;19;20373;-76
2024/03/16 09:52:52;;;;;;;5.85;1.30;;;14.70;99.90;;;;;;7381630;19;20014;-75
2024/03/16 09:55:23;;;;;;;3.92;1.35;;;14.80;99.90;;;;;;7402529;19;20253;-75
2024/03/16 09:57:55;;;;;;;6.93;1.40;;;14.90;99.90;;;;;;7381614;19;20249;-75
2024/03/16 10:00:24;;;;;;;9.23;1.48;;;14.90;99.90;;;;;;7381402;19;20002;-75
2024/03/16 10:02:54;;;;;;;5.40;1.13;;;15.00;99.90;;;;;;7381033;19;20387;-75
2024/03/16 10:05:22;;;;;;;3.22;1.10;;;15.20;99.90;;;;;;7381671;19;20002;-75
2024/03/16 10:07:52;;;;;;;5.75;1.67;;;15.30;99.90;;;;;;7380794;19;20014;-75
2024/03/16 10:10:22;;;;;;;11.27;4.45;;;15.30;99.90;;;;;;7403363;19;20011;-75
2024/03/16 10:13:06;;;;;;;13.15;1.55;;;15.40;99.90;;;;;;7380213;19;20011;-75
2024/03/16 10:15:43;;;;;;;5.28;1.40;;;15.30;99.90;;;;;;7379760;19;20006;-76
2024/03/16 10:18:17;;;;;;;4.88;1.50;;;15.20;99.90;;;;;;7379957;19;20009;-75
2024/03/16 10:20:46;;;;;;;5.07;1.17;;;15.40;99.90;;;;;;7380461;19;20095;-76
2024/03/16 10:23:16;;;;;;;7.55;1.52;;;15.40;99.90;;;;;;7380035;19;20015;-76
2024/03/16 10:25:48;;;;;;;4.28;1.30;;;15.30;99.90;;;;;;7381176;19;20017;-76
2024/03/16 10:28:19;;;;;;;5.38;1.42;;;15.10;99.90;;;;;;7401657;19;20682;-76
2024/03/16 10:30:48;;;;;;;4.93;1.10;;;14.80;99.90;;;;;;7380223;19;20035;-76
2024/03/16 10:33:18;;;;;;;12.13;1.58;;;14.70;99.90;;;;;;7380486;19;20014;-76
2024/03/16 10:35:49;;;;;;;4.38;1.15;;;14.70;99.90;;;;;;7381604;19;20030;-76
2024/03/16 10:38:19;;;;;;;6.50;1.63;;;14.90;99.90;;;;;;7380696;19;20078;-76
2024/03/16 10:40:49;;;;;;;7.93;1.50;;;14.90;99.90;;;;;;7380156;19;20054;-76
2024/03/16 10:43:20;;;;;;;4.88;1.65;;;15.00;99.90;;;;;;7400611;19;20007;-76
2024/03/16 10:45:50;;;;;;;5.65;1.15;;;15.10;99.90;;;;;;7377810;19;20409;-76
2024/03/16 10:48:18;;;;;;;8.13;1.30;;;15.40;99.90;;;;;;7379857;19;20016;-76
2024/03/16 10:50:48;;;;;;;3.10;1.38;;;15.30;99.90;;;;;;7379671;19;20051;-77
2024/03/16 10:53:17;;;;;;;4.50;1.35;;;15.40;99.90;;;;;;7379787;19;20112;-75
2024/03/16 10:55:47;;;;;;;4.38;1.35;;;15.50;99.90;;;;;;7383083;19;20003;-76
2024/03/16 10:58:25;;;;;;;10.32;1.35;;;15.80;99.90;;;;;;7401028;19;20007;-76
2024/03/16 11:00:58;;;;;;;3.15;1.00;;;15.80;99.90;;;;;;7381088;19;20078;-77
2024/03/16 11:03:27;;;;;;;2.55;1.10;;;15.90;99.90;;;;;;7378779;19;20007;-76
2024/03/16 11:06:02;;;;;;;3.70;0.93;;;15.90;99.90;;;;;;7378879;19;20003;-76
2024/03/16 11:08:42;;;;;;;4.47;1.48;;;16.10;99.90;;;;;;7379276;19;20264;-77
2024/03/16 11:11:12;;;;;;;3.58;1.02;;;15.90;99.90;;;;;;7379208;19;20061;-77
2024/03/16 11:14:07;;;;;;;3.65;1.25;;;15.90;99.90;;;;;;7400476;19;20011;-76
2024/03/16 11:16:39;;;;;;;8.35;1.40;;;16.10;99.90;;;;;;7378038;19;20011;-77
2024/03/16 11:19:20;;;;;;;4.43;1.10;;;15.80;99.90;;;;;;7378694;19;20006;-77
2024/03/16 11:21:52;;;;;;;4.53;1.30;;;15.60;99.90;;;;;;7378083;19;20031;-76
2024/03/16 11:24:21;;;;;;;5.88;1.30;;;15.70;99.90;;;;;;7377422;19;20010;-77
2024/03/16 11:26:50;;;;;;;10.23;1.40;;;15.60;99.90;;;;;;7378840;19;20010;-76
2024/03/16 11:29:25;;;;;;;3.58;1.17;;;15.80;99.90;;;;;;7379862;19;20074;-77
2024/03/16 11:31:53;;;;;;;4.30;1.23;;;15.80;99.90;;;;;;7379917;19;20003;-77
2024/03/16 11:34:25;;;;;;;5.10;1.10;;;15.70;99.90;;;;;;7399272;19;20035;-76
2024/03/16 11:36:52;;;;;;;6.93;1.50;;;15.80;99.90;;;;;;7377387;19;20010;-75
2024/03/16 11:39:27;;;;;;;7.05;1.20;;;15.90;99.90;;;;;;7377938;19;20020;-77
2024/03/16 11:41:55;;;;;;;6.10;1.10;;;16.00;99.90;;;;;;7378205;19;20227;-76
2024/03/16 11:44:26;;;;;;;7.97;1.42;;;16.00;99.90;;;;;;7377472;19;20015;-75
2024/03/16 11:46:53;;;;;;;5.45;2.03;;;15.90;99.90;;;;;;7377799;19;20035;-76
2024/03/16 11:49:24;;;;;;;6.28;1.73;;;16.20;99.90;;;;;;7400272;19;20019;-76
2024/03/16 11:51:54;;;;;;;5.67;1.43;;;16.20;99.90;;;;;;7376963;19;20017;-77
2024/03/16 11:54:23;;;;;;;3.20;1.10;;;16.20;99.90;;;;;;7377940;19;20007;-76
2024/03/16 11:56:50;;;;;;;4.15;1.30;;;16.10;99.90;;;;;;7375325;19;20070;-77
2024/03/16 11:59:20;;;;;;;3.10;1.10;;;16.20;99.90;;;;;;7377185;19;20781;-77
2024/03/16 12:01:51;;;;;;;8.60;1.17;;;16.20;99.90;;;;;;7399028;19;20082;-76
2024/03/16 12:04:24;;;;;;;3.20;1.00;;;16.30;99.90;;;;;;7376013;19;20007;-76
2024/03/16 12:06:53;;;;;;;5.97;1.33;;;16.30;99.90;;;;;;7376610;19;20247;-76
2024/03/16 12:09:30;;;;;;;3.72;1.10;;;16.40;99.90;;;;;;7375762;19;20227;-76
2024/03/16 12:11:58;;;;;;;4.18;1.02;;;16.50;99.90;;;;;;7376861;19;20013;-77
2024/03/16 12:14:27;;;;;;;4.45;1.15;;;16.60;99.90;;;;;;7376483;19;20096;-76
2024/03/16 12:16:56;;;;;;;3.15;0.93;;;16.70;99.90;;;;;;7397538;19;20114;-77
2024/03/16 12:19:25;;;;;;;6.10;1.40;;;16.80;99.90;;;;;;7376601;19;20006;-74
2024/03/16 12:21:51;;;;;;;6.53;1.40;;;16.80;99.90;;;;;;7376197;19;20024;-76
2024/03/16 12:24:21;;;;;;;3.90;1.52;;;16.70;99.90;;;;;;7376067;19;20035;-77
2024/03/16 12:26:49;;;;;;;4.70;1.48;;;16.70;99.90;;;;;;7376716;19;20010;-80
2024/03/16 12:29:21;;;;;;;6.40;1.20;;;16.70;99.90;;;;;;7385345;19;20000;-78
2024/03/16 12:31:53;;;;;;;2.97;1.30;;;16.70;99.90;;;;;;7401015;19;20007;-80
2024/03/16 12:34:27;;;;;;;5.78;1.40;;;16.80;99.90;;;;;;7383442;19;20015;-79
2024/03/16 12:36:54;;;;;;;4.43;1.30;;;16.60;99.90;;;;;;7381834;19;20046;-78
2024/03/16 12:39:24;;;;;;;7.68;1.58;;;16.80;99.90;;;;;;7378916;19;20006;-78
2024/03/16 12:41:54;;;;;;;5.13;1.30;;;16.90;99.90;;;;;;7381494;19;20006;-78
2024/03/16 12:44:23;;;;;;;2.90;1.20;;;17.10;99.90;;;;;;7380773;19;20027;-79
2024/03/16 12:46:55;;;;;;;5.40;1.10;;;17.30;99.90;;;;;;7404569;19;20035;-80
2024/03/16 12:49:24;;;;;;;5.53;1.17;;;17.50;99.90;;;;;;7379893;19;20035;-78
2024/03/16 12:51:57;;;;;;;5.07;1.00;;;17.50;99.90;;;;;;7382756;19;20401;-80
2024/03/16 13:07:52;;;;;;;5.80;1.00;;;17.80;99.90;;;;;;7385027;19;20080;-83
2024/03/16 13:10:38;;;;;;;7.72;1.23;;;17.70;99.90;;;;;;7290274;19;20273;-84
2024/03/16 13:13:10;;;;;;;2.40;0.90;;;17.80;99.90;;;;;;7380265;19;20032;-80
2024/03/16 13:15:37;;;;;;;4.70;1.27;;;17.80;99.90;;;;;;7379686;19;19998;-77